Airfield :
LOGIN :

Register | Disclaimer

   EN    FR    IT 

 










Legend :    VFR   Marginal VFR   IFR   Intensive IFR   Very Intensive IFR
Visi :
Ceiling :
>= 8 km
>= 3000ft
5 to 8 km
1000 to 3000 ft
1500m to 5 km
500 to 1000 ft
800 to 1500m
200 to 500 ft
< 800m
< 200 ft
Symbols :   Thunderstorms  Fog  Heavy snow  Heavy precipitations  Wind > 20 kt
SIGMETs :     Misc.  Thunderstorms  Icing  Turbulence  Mountain Waves  Volcanic Ashes






- Airport Elevation : 681 ft
- IATA code : LBA


EGNM - Leeds Bradford

CURRENT METAR :
  • 301650Z 36007KT 9999 SCT012 BKN030 13/13 Q1003

EXPIRED METARs :
  • 301620Z 36008KT 9000 4000N -RA SCT002 BKN006 13/12 Q1003
  • 301520Z 01009KT 350V060 4000 -RA BR SCT002 BKN003 13/13 Q1002
  • 301450Z 35013KT 2500 -RA BR SCT002 BKN003 13/13 Q1002
  • 301420Z 36010KT 3500 RA BR SCT003 BKN004 13/13 Q1002

TAF AMD TAF EGNM
Valid from the 30 at 14:00 until the 31 at 12:00 UTC


301453Z 3014/3112 36012KT 9999 SCT010
TEMPO 3014/3023 6000 SHRA RA BKN008
PROB40
TEMPO 3014/3020 1400 RADZ BR BKN003
PROB30
TEMPO 3015/3019 3000 +SHRA
BECMG 3017/3020 30006KT
ATIS : +44 113 250 9696 (x2489)



MET'MAP, your aeronautical weather chart ! - Copyright ORBIFLY December 2007 - Disclaimer

ORBIFLY MET'MAP TEAM :

Programming & Development : Alexandra Zaïnal
Concept & original design : Baudouin d'Aumeries
Assistance for programming : Marc-Olivier Méhu
Technical & hardware support : Manuel Goepfert

Contact : metmap@orbifly.com




SOURCES & CREDITS :

   NOAA